sensor_id;sensor_type;location;lat;lon;timestamp;pressure;altitude;pressure_sealevel;temperature;humidity
65606;BME280;52276;48.906;2.384;2023-03-23T12:18:45;88103.997802734;;;17.1;50.4
65606;BME280;52276;48.906;2.384;2023-03-23T12:19:43;88103.997802734;;;17.1;50.3
65606;BME280;52276;48.906;2.384;2023-03-23T12:20:45;88103.997802734;;;17.1;50.5
65606;BME280;52276;48.906;2.384;2023-03-23T12:21:44;88103.997802734;;;17.1;50.3
65606;BME280;52276;48.906;2.384;2023-03-23T12:22:46;88103.997802734;;;17.1;50.5
65606;BME280;52276;48.906;2.384;2023-03-23T12:23:44;88103.997802734;;;17.1;50.4
65606;BME280;52276;48.906;2.384;2023-03-23T12:24:46;88103.997802734;;;17.1;50.5
65606;BME280;52276;48.906;2.384;2023-03-23T12:26:14;88103.997802734;;;17.2;50.5
65606;BME280;52276;48.906;2.384;2023-03-23T12:26:43;88103.997802734;;;17.2;50.5
65606;BME280;52276;48.906;2.384;2023-03-23T12:27:42;88103.997802734;;;17.2;50.8
65606;BME280;52276;48.906;2.384;2023-03-23T12:28:55;88103.997802734;;;17.1;50.6
65606;BME280;52276;48.906;2.384;2023-03-23T12:29:45;88103.997802734;;;17.2;50.3
65606;BME280;52276;48.906;2.384;2023-03-23T12:30:42;88103.997802734;;;17.2;50.7
65606;BME280;52276;48.906;2.384;2023-03-23T12:31:44;88103.997802734;;;17.2;50.7
65606;BME280;52276;48.906;2.384;2023-03-23T12:32:44;88103.997802734;;;17.2;51
65606;BME280;52276;48.906;2.384;2023-03-23T12:33:45;88103.997802734;;;17.3;50.8
65606;BME280;52276;48.906;2.384;2023-03-23T12:34:47;88103.997802734;;;17.2;50.3
65606;BME280;52276;48.906;2.384;2023-03-23T12:35:46;88103.997802734;;;17.2;50.8
65606;BME280;52276;48.906;2.384;2023-03-23T12:36:45;88103.997802734;;;17.3;50.4
65606;BME280;52276;48.906;2.384;2023-03-23T12:37:45;88103.997802734;;;17.3;50.4
65606;BME280;52276;48.906;2.384;2023-03-23T12:38:49;88103.997802734;;;17.3;50.7
65606;BME280;52276;48.906;2.384;2023-03-23T12:39:46;88103.997802734;;;17.4;50.8
65606;BME280;52276;48.906;2.384;2023-03-23T12:40:44;88103.997802734;;;17.4;50.5
65606;BME280;52276;48.906;2.384;2023-03-23T12:41:44;88103.997802734;;;17.4;50.7
65606;BME280;52276;48.906;2.384;2023-03-23T12:42:45;88103.997802734;;;17.4;49
65606;BME280;52276;48.906;2.384;2023-03-23T12:43:44;88103.997802734;;;17.4;50.2
65606;BME280;52276;48.906;2.384;2023-03-23T12:44:43;88103.997802734;;;17.5;49.8
65606;BME280;52276;48.906;2.384;2023-03-23T12:45:52;88103.997802734;;;17.5;49.7
65606;BME280;52276;48.906;2.384;2023-03-23T12:46:45;88103.997802734;;;17.5;49.4
65606;BME280;52276;48.906;2.384;2023-03-23T12:47:42;88103.997802734;;;17.5;49.8
65606;BME280;52276;48.906;2.384;2023-03-23T12:48:42;88103.997802734;;;17.5;50.1
65606;BME280;52276;48.906;2.384;2023-03-23T12:49:43;88103.997802734;;;17.5;50
65606;BME280;52276;48.906;2.384;2023-03-23T12:50:42;88103.997802734;;;17.5;49.8
65606;BME280;52276;48.906;2.384;2023-03-23T12:51:42;88103.997802734;;;17.6;49.9
65606;BME280;52276;48.906;2.384;2023-03-23T12:52:43;88103.997802734;;;17.6;50.1
65606;BME280;52276;48.906;2.384;2023-03-23T12:53:43;88103.997802734;;;17.7;49.9
65606;BME280;52276;48.906;2.384;2023-03-23T12:54:42;88103.997802734;;;17.6;49.5
65606;BME280;52276;48.906;2.384;2023-03-23T12:55:43;88103.997802734;;;17.7;49.8
65606;BME280;52276;48.906;2.384;2023-03-23T12:56:42;88103.997802734;;;17.7;49.8
65606;BME280;52276;48.906;2.384;2023-03-23T12:57:48;88103.997802734;;;17.7;49.6
65606;BME280;52276;48.906;2.384;2023-03-23T12:58:42;88103.997802734;;;17.7;49.7
65606;BME280;52276;48.906;2.384;2023-03-23T12:59:42;88103.997802734;;;17.7;49
65606;BME280;52276;48.906;2.384;2023-03-23T13:00:52;88103.997802734;;;17.8;49.2
65606;BME280;52276;48.906;2.384;2023-03-23T13:01:42;88103.997802734;;;17.7;48.3
65606;BME280;52276;48.906;2.384;2023-03-23T13:02:43;88103.997802734;;;17.8;48.5
65606;BME280;52276;48.906;2.384;2023-03-23T13:03:42;88103.997802734;;;17.8;49.1
65606;BME280;52276;48.906;2.384;2023-03-23T13:04:42;88103.997802734;;;17.8;48.5
65606;BME280;52276;48.906;2.384;2023-03-23T13:05:46;88103.997802734;;;17.8;48.6
65606;BME280;52276;48.906;2.384;2023-03-23T13:06:42;88103.997802734;;;17.8;49.2
65606;BME280;52276;48.906;2.384;2023-03-23T13:07:42;88103.997802734;;;17.8;48.8
65606;BME280;52276;48.906;2.384;2023-03-23T13:08:42;88103.997802734;;;17.9;48.7
65606;BME280;52276;48.906;2.384;2023-03-23T13:09:45;88103.997802734;;;17.9;49
65606;BME280;52276;48.906;2.384;2023-03-23T13:10:43;88103.997802734;;;17.9;48.5
65606;BME280;52276;48.906;2.384;2023-03-23T13:11:42;88103.997802734;;;17.9;49
65606;BME280;52276;48.906;2.384;2023-03-23T13:12:41;88103.997802734;;;17.9;49.1
65606;BME280;52276;48.906;2.384;2023-03-23T13:13:44;88103.997802734;;;17.9;48.7
65606;BME280;52276;48.906;2.384;2023-03-23T13:14:43;88103.997802734;;;17.9;49.2
65606;BME280;52276;48.906;2.384;2023-03-23T13:15:44;88103.997802734;;;18;49.3
65606;BME280;52276;48.906;2.384;2023-03-23T13:16:43;88103.997802734;;;17.9;48
65606;BME280;52276;48.906;2.384;2023-03-23T13:17:43;88103.997802734;;;17.9;48.2
65606;BME280;52276;48.906;2.384;2023-03-23T13:18:44;88103.997802734;;;17.9;48.1
65606;BME280;52276;48.906;2.384;2023-03-23T13:20:03;88103.997802734;;;17.9;47.8
65606;BME280;52276;48.906;2.384;2023-03-23T13:20:46;88103.997802734;;;17.9;47.8
65606;BME280;52276;48.906;2.384;2023-03-23T13:21:45;88103.997802734;;;17.9;48
65606;BME280;52276;48.906;2.384;2023-03-23T13:22:43;88103.997802734;;;18;48.2
65606;BME280;52276;48.906;2.384;2023-03-23T13:23:42;88103.997802734;;;17.9;48
65606;BME280;52276;48.906;2.384;2023-03-23T13:24:45;88103.997802734;;;18;48.1
65606;BME280;52276;48.906;2.384;2023-03-23T13:25:46;88103.997802734;;;18;48.1
65606;BME280;52276;48.906;2.384;2023-03-23T13:26:42;88103.997802734;;;18;47.8
65606;BME280;52276;48.906;2.384;2023-03-23T13:27:42;88103.997802734;;;18;47.4
65606;BME280;52276;48.906;2.384;2023-03-23T13:28:48;88103.997802734;;;18.1;48
65606;BME280;52276;48.906;2.384;2023-03-23T13:29:43;88103.997802734;;;18.1;48
65606;BME280;52276;48.906;2.384;2023-03-23T13:30:41;88103.997802734;;;18.1;47.6
65606;BME280;52276;48.906;2.384;2023-03-23T13:31:41;88103.997802734;;;18.1;47.5
65606;BME280;52276;48.906;2.384;2023-03-23T13:32:42;88103.997802734;;;18.1;47.6
65606;BME280;52276;48.906;2.384;2023-03-23T13:33:45;88103.997802734;;;18.1;47.4
65606;BME280;52276;48.906;2.384;2023-03-23T13:34:41;88103.997802734;;;18.1;47.5
65606;BME280;52276;48.906;2.384;2023-03-23T13:35:41;88103.997802734;;;18.1;47.3
65606;BME280;52276;48.906;2.384;2023-03-23T13:36:42;88103.997802734;;;18.1;47.6
65606;BME280;52276;48.906;2.384;2023-03-23T13:37:44;88103.997802734;;;18.1;47.9
65606;BME280;52276;48.906;2.384;2023-03-23T13:38:45;88103.997802734;;;18.2;47.9
65606;BME280;52276;48.906;2.384;2023-03-23T13:39:47;88103.997802734;;;18.2;47.9
65606;BME280;52276;48.906;2.384;2023-03-23T13:40:42;88103.997802734;;;18.2;47.8
65606;BME280;52276;48.906;2.384;2023-03-23T13:41:46;88103.997802734;;;18.2;47.7
65606;BME280;52276;48.906;2.384;2023-03-23T13:42:48;88103.997802734;;;18.2;47.8
65606;BME280;52276;48.906;2.384;2023-03-23T13:43:42;88103.997802734;;;18.2;47.1
65606;BME280;52276;48.906;2.384;2023-03-23T13:44:54;88103.997802734;;;18.2;45.9
65606;BME280;52276;48.906;2.384;2023-03-23T13:45:43;88103.997802734;;;18.2;48
65606;BME280;52276;48.906;2.384;2023-03-23T13:46:41;88103.997802734;;;18.2;47.7
65606;BME280;52276;48.906;2.384;2023-03-23T13:47:41;88103.997802734;;;18.2;47
65606;BME280;52276;48.906;2.384;2023-03-23T13:49:23;88103.997802734;;;18.2;47.3
65606;BME280;52276;48.906;2.384;2023-03-23T13:49:46;88103.997802734;;;18.2;47.2
65606;BME280;52276;48.906;2.384;2023-03-23T13:50:43;88103.997802734;;;18.3;47.2
65606;BME280;52276;48.906;2.384;2023-03-23T13:51:47;88103.997802734;;;18.2;47.3
65606;BME280;52276;48.906;2.384;2023-03-23T13:52:50;88103.997802734;;;18.2;47.8
65606;BME280;52276;48.906;2.384;2023-03-23T13:53:43;88103.997802734;;;18.3;47.3
65606;BME280;52276;48.906;2.384;2023-03-23T13:54:42;88103.997802734;;;18.3;45.2
65606;BME280;52276;48.906;2.384;2023-03-23T13:55:42;88103.997802734;;;18.3;45.4
65606;BME280;52276;48.906;2.384;2023-03-23T13:56:42;88103.997802734;;;18.3;46.2
65606;BME280;52276;48.906;2.384;2023-03-23T13:57:48;88103.997802734;;;18.4;46.3
65606;BME280;52276;48.906;2.384;2023-03-23T13:58:45;88103.997802734;;;18.4;46.8
65606;BME280;52276;48.906;2.384;2023-03-23T13:59:47;88103.997802734;;;18.4;46.9
65606;BME280;52276;48.906;2.384;2023-03-23T14:00:46;88103.997802734;;;18.4;46.2
65606;BME280;52276;48.906;2.384;2023-03-23T14:01:42;88103.997802734;;;18.4;47.1
65606;BME280;52276;48.906;2.384;2023-03-23T14:02:42;88103.997802734;;;18.4;45.7
65606;BME280;52276;48.906;2.384;2023-03-23T14:03:44;88103.997802734;;;18.5;46.5
65606;BME280;52276;48.906;2.384;2023-03-23T14:04:41;88103.997802734;;;18.5;46.5
65606;BME280;52276;48.906;2.384;2023-03-23T14:05:42;88103.997802734;;;18.5;46.5
65606;BME280;52276;48.906;2.384;2023-03-23T14:06:41;88103.997802734;;;18.5;46.8
65606;BME280;52276;48.906;2.384;2023-03-23T14:07:57;88103.997802734;;;18.6;44.8
65606;BME280;52276;48.906;2.384;2023-03-23T14:08:42;88103.997802734;;;18.6;46.3
65606;BME280;52276;48.906;2.384;2023-03-23T14:09:42;88103.997802734;;;18.6;46.2
65606;BME280;52276;48.906;2.384;2023-03-23T14:10:42;88103.997802734;;;18.6;46.5
65606;BME280;52276;48.906;2.384;2023-03-23T14:11:49;88103.997802734;;;18.7;46.7
65606;BME280;52276;48.906;2.384;2023-03-23T14:12:42;88103.997802734;;;18.6;45.6
65606;BME280;52276;48.906;2.384;2023-03-23T14:13:43;88103.997802734;;;18.7;45.9
65606;BME280;52276;48.906;2.384;2023-03-23T14:14:42;88103.997802734;;;18.6;45.1
65606;BME280;52276;48.906;2.384;2023-03-23T14:15:42;88103.997802734;;;18.6;45.6
65606;BME280;52276;48.906;2.384;2023-03-23T14:16:42;88103.997802734;;;18.6;44.9
65606;BME280;52276;48.906;2.384;2023-03-23T14:17:42;88103.997802734;;;18.5;44.1
65606;BME280;52276;48.906;2.384;2023-03-23T14:18:48;88103.997802734;;;18.5;44.1
65606;BME280;52276;48.906;2.384;2023-03-23T14:19:42;88103.997802734;;;18.5;44.1
65606;BME280;52276;48.906;2.384;2023-03-23T14:20:42;88103.997802734;;;18.5;44.6
65606;BME280;52276;48.906;2.384;2023-03-23T14:21:42;88103.997802734;;;18.5;45.1
65606;BME280;52276;48.906;2.384;2023-03-23T14:22:41;88103.997802734;;;18.4;45.1
65606;BME280;52276;48.906;2.384;2023-03-23T14:23:41;88103.997802734;;;18.4;45.3
65606;BME280;52276;48.906;2.384;2023-03-23T14:24:41;88103.997802734;;;18.5;45.7
65606;BME280;52276;48.906;2.384;2023-03-23T14:25:42;88103.997802734;;;18.5;46.1
65606;BME280;52276;48.906;2.384;2023-03-23T14:26:42;88103.997802734;;;18.5;46.2
65606;BME280;52276;48.906;2.384;2023-03-23T14:27:46;88103.997802734;;;18.5;46
65606;BME280;52276;48.906;2.384;2023-03-23T14:28:43;88103.997802734;;;18.5;46.2
65606;BME280;52276;48.906;2.384;2023-03-23T14:29:41;88103.997802734;;;18.5;46.2
65606;BME280;52276;48.906;2.384;2023-03-23T14:30:41;88103.997802734;;;18.5;46.3
65606;BME280;52276;48.906;2.384;2023-03-23T14:31:41;88103.997802734;;;18.6;46.4
65606;BME280;52276;48.906;2.384;2023-03-23T14:32:42;88103.997802734;;;18.5;45.8
65606;BME280;52276;48.906;2.384;2023-03-23T14:33:41;88103.997802734;;;18.5;44.3
65606;BME280;52276;48.906;2.384;2023-03-23T14:34:42;88103.997802734;;;18.5;45.5
65606;BME280;52276;48.906;2.384;2023-03-23T14:35:42;88103.997802734;;;18.5;45.8
65606;BME280;52276;48.906;2.384;2023-03-23T14:36:41;88103.997802734;;;18.4;45.8
65606;BME280;52276;48.906;2.384;2023-03-23T14:37:41;88103.997802734;;;18.5;45.8
65606;BME280;52276;48.906;2.384;2023-03-23T14:38:41;88103.997802734;;;18.5;46.2
65606;BME280;52276;48.906;2.384;2023-03-23T14:39:44;88103.997802734;;;18.5;45.8
65606;BME280;52276;48.906;2.384;2023-03-23T14:40:46;88103.997802734;;;18.5;46.1
65606;BME280;52276;48.906;2.384;2023-03-23T14:41:42;88103.997802734;;;18.5;46.3
65606;BME280;52276;48.906;2.384;2023-03-23T14:42:42;88103.997802734;;;18.5;46.4
65606;BME280;52276;48.906;2.384;2023-03-23T14:43:44;88103.997802734;;;18.5;46.3
65606;BME280;52276;48.906;2.384;2023-03-23T14:44:42;88103.997802734;;;18.6;46.4
65606;BME280;52276;48.906;2.384;2023-03-23T14:45:41;88103.997802734;;;18.6;46.4
65606;BME280;52276;48.906;2.384;2023-03-23T14:46:41;88103.997802734;;;18.6;46.4
65606;BME280;52276;48.906;2.384;2023-03-23T14:47:43;88103.997802734;;;18.6;45.7
65606;BME280;52276;48.906;2.384;2023-03-23T14:48:41;88103.997802734;;;18.6;46.4
65606;BME280;52276;48.906;2.384;2023-03-23T14:49:42;88103.997802734;;;18.6;46.4
65606;BME280;52276;48.906;2.384;2023-03-23T14:50:42;88103.997802734;;;18.6;45.9
65606;BME280;52276;48.906;2.384;2023-03-23T14:51:46;88103.997802734;;;18.7;46.2
65606;BME280;52276;48.906;2.384;2023-03-23T14:52:41;88103.997802734;;;18.7;46
65606;BME280;52276;48.906;2.384;2023-03-23T14:53:41;88103.997802734;;;18.7;44
65606;BME280;52276;48.906;2.384;2023-03-23T14:54:42;88103.997802734;;;18.8;46.2
65606;BME280;52276;48.906;2.384;2023-03-23T14:55:42;88103.997802734;;;18.8;45.7
65606;BME280;52276;48.906;2.384;2023-03-23T14:56:41;88103.997802734;;;18.8;45.6
65606;BME280;52276;48.906;2.384;2023-03-23T14:57:41;88103.997802734;;;18.7;44.6
65606;BME280;52276;48.906;2.384;2023-03-23T14:58:43;88103.997802734;;;18.7;45.7
65606;BME280;52276;48.906;2.384;2023-03-23T14:59:42;88103.997802734;;;18.7;45.3
65606;BME280;52276;48.906;2.384;2023-03-23T15:00:42;88103.997802734;;;18.7;45.3
65606;BME280;52276;48.906;2.384;2023-03-23T15:01:41;88103.997802734;;;18.7;45.4
65606;BME280;52276;48.906;2.384;2023-03-23T15:02:44;88103.997802734;;;18.7;45.1
65606;BME280;52276;48.906;2.384;2023-03-23T15:03:42;88103.997802734;;;18.7;45.3
65606;BME280;52276;48.906;2.384;2023-03-23T15:04:43;88103.997802734;;;18.7;44.7
65606;BME280;52276;48.906;2.384;2023-03-23T15:05:42;88103.997802734;;;18.8;45
65606;BME280;52276;48.906;2.384;2023-03-23T15:06:42;88103.997802734;;;18.7;44.1
65606;BME280;52276;48.906;2.384;2023-03-23T15:07:42;88103.997802734;;;18.7;44.7
65606;BME280;52276;48.906;2.384;2023-03-23T15:08:42;88103.997802734;;;18.7;44.5
65606;BME280;52276;48.906;2.384;2023-03-23T15:09:43;88103.997802734;;;18.7;44.7
65606;BME280;52276;48.906;2.384;2023-03-23T15:10:41;88103.997802734;;;18.7;44.8
65606;BME280;52276;48.906;2.384;2023-03-23T15:11:42;88103.997802734;;;18.7;44
65606;BME280;52276;48.906;2.384;2023-03-23T15:12:42;88103.997802734;;;18.7;44.4
65606;BME280;52276;48.906;2.384;2023-03-23T15:13:43;88103.997802734;;;18.8;45
65606;BME280;52276;48.906;2.384;2023-03-23T15:14:43;88103.997802734;;;18.8;45.1
65606;BME280;52276;48.906;2.384;2023-03-23T15:15:41;88103.997802734;;;18.8;44.5
65606;BME280;52276;48.906;2.384;2023-03-23T15:16:45;88103.997802734;;;18.8;43.1
65606;BME280;52276;48.906;2.384;2023-03-23T15:17:46;88103.997802734;;;18.7;44.3
65606;BME280;52276;48.906;2.384;2023-03-23T15:18:44;88103.997802734;;;18.7;44.6
65606;BME280;52276;48.906;2.384;2023-03-23T15:19:42;88103.997802734;;;18.6;44.3
65606;BME280;52276;48.906;2.384;2023-03-23T15:20:45;88103.997802734;;;18.7;44.8
65606;BME280;52276;48.906;2.384;2023-03-23T15:21:47;88103.997802734;;;18.7;44.5
65606;BME280;52276;48.906;2.384;2023-03-23T15:22:44;88103.997802734;;;18.6;43.9
65606;BME280;52276;48.906;2.384;2023-03-23T15:23:42;88103.997802734;;;18.6;44.5
65606;BME280;52276;48.906;2.384;2023-03-23T15:24:41;88103.997802734;;;18.5;44.3
65606;BME280;52276;48.906;2.384;2023-03-23T15:25:47;88103.997802734;;;18.5;44.6
65606;BME280;52276;48.906;2.384;2023-03-23T15:26:42;88103.997802734;;;18.5;43.1
65606;BME280;52276;48.906;2.384;2023-03-23T15:27:42;88103.997802734;;;18.6;44.5
65606;BME280;52276;48.906;2.384;2023-03-23T15:28:41;88103.997802734;;;18.6;44.7
65606;BME280;52276;48.906;2.384;2023-03-23T15:29:49;88103.997802734;;;18.6;44.9
65606;BME280;52276;48.906;2.384;2023-03-23T15:30:46;88103.997802734;;;18.6;44.1
65606;BME280;52276;48.906;2.384;2023-03-23T15:31:42;88103.997802734;;;18.6;44.6
65606;BME280;52276;48.906;2.384;2023-03-23T15:32:42;88103.997802734;;;18.6;43.9
65606;BME280;52276;48.906;2.384;2023-03-23T15:33:42;88103.997802734;;;18.5;43.1
65606;BME280;52276;48.906;2.384;2023-03-23T15:34:44;88103.997802734;;;18.5;43.4
65606;BME280;52276;48.906;2.384;2023-03-23T15:35:46;88103.997802734;;;18.5;43.7
65606;BME280;52276;48.906;2.384;2023-03-23T15:36:41;88103.997802734;;;18.4;43.6
65606;BME280;52276;48.906;2.384;2023-03-23T15:37:42;88103.997802734;;;18.4;43.5
65606;BME280;52276;48.906;2.384;2023-03-23T15:38:42;88103.997802734;;;18.4;42.8
65606;BME280;52276;48.906;2.384;2023-03-23T15:39:41;88103.997802734;;;18.3;40.7
65606;BME280;52276;48.906;2.384;2023-03-23T15:40:42;88103.997802734;;;18.3;42.8
65606;BME280;52276;48.906;2.384;2023-03-23T15:41:45;88103.997802734;;;18.3;43.6
65606;BME280;52276;48.906;2.384;2023-03-23T15:42:41;88103.997802734;;;18.2;42.9
65606;BME280;52276;48.906;2.384;2023-03-23T15:43:48;88103.997802734;;;18.2;42.8
65606;BME280;52276;48.906;2.384;2023-03-23T15:44:42;88103.997802734;;;18.1;43.1
65606;BME280;52276;48.906;2.384;2023-03-23T15:45:51;88103.997802734;;;18.1;42.9
65606;BME280;52276;48.906;2.384;2023-03-23T15:46:47;88103.997802734;;;18.1;43.1
65606;BME280;52276;48.906;2.384;2023-03-23T15:47:47;88103.997802734;;;18.1;43.6
65606;BME280;52276;48.906;2.384;2023-03-23T15:48:46;88103.997802734;;;18.1;43.5
65606;BME280;52276;48.906;2.384;2023-03-23T15:49:42;88103.997802734;;;18;43.7
65606;BME280;52276;48.906;2.384;2023-03-23T15:50:41;88103.997802734;;;18;43.5
65606;BME280;52276;48.906;2.384;2023-03-23T15:51:42;88103.997802734;;;18;43.8
65606;BME280;52276;48.906;2.384;2023-03-23T15:52:42;88103.997802734;;;18;43.7
65606;BME280;52276;48.906;2.384;2023-03-23T15:53:41;88103.997802734;;;18;43.9
65606;BME280;52276;48.906;2.384;2023-03-23T15:54:49;88103.997802734;;;18;43.9
65606;BME280;52276;48.906;2.384;2023-03-23T15:55:42;88103.997802734;;;18;44
65606;BME280;52276;48.906;2.384;2023-03-23T15:56:42;88103.997802734;;;18;44
65606;BME280;52276;48.906;2.384;2023-03-23T15:57:41;88103.997802734;;;17.9;43.6
65606;BME280;52276;48.906;2.384;2023-03-23T15:58:42;88103.997802734;;;17.9;44.1
65606;BME280;52276;48.906;2.384;2023-03-23T15:59:41;88103.997802734;;;18;44.4
65606;BME280;52276;48.906;2.384;2023-03-23T16:00:42;88103.997802734;;;17.9;44.1
65606;BME280;52276;48.906;2.384;2023-03-23T16:01:42;88103.997802734;;;17.9;44.3
65606;BME280;52276;48.906;2.384;2023-03-23T16:02:41;88103.997802734;;;17.9;44.5
65606;BME280;52276;48.906;2.384;2023-03-23T16:03:42;88103.997802734;;;17.8;44.4
65606;BME280;52276;48.906;2.384;2023-03-23T16:04:42;88103.997802734;;;17.8;44.4
65606;BME280;52276;48.906;2.384;2023-03-23T16:05:42;88103.997802734;;;17.8;44.6
65606;BME280;52276;48.906;2.384;2023-03-23T16:06:41;88103.997802734;;;17.8;44.7
65606;BME280;52276;48.906;2.384;2023-03-23T16:07:41;88103.997802734;;;17.7;44.5
65606;BME280;52276;48.906;2.384;2023-03-23T16:08:41;88103.997802734;;;17.7;44.8
65606;BME280;52276;48.906;2.384;2023-03-23T16:09:42;88103.997802734;;;17.7;44.9
65606;BME280;52276;48.906;2.384;2023-03-23T16:10:41;88103.997802734;;;17.7;44.8
65606;BME280;52276;48.906;2.384;2023-03-23T16:11:42;88103.997802734;;;17.7;45
65606;BME280;52276;48.906;2.384;2023-03-23T16:12:43;88103.997802734;;;17.7;45
65606;BME280;52276;48.906;2.384;2023-03-23T16:13:43;88103.997802734;;;17.7;45.2
65606;BME280;52276;48.906;2.384;2023-03-23T16:14:41;88103.997802734;;;17.7;45.3
65606;BME280;52276;48.906;2.384;2023-03-23T16:15:41;88103.997802734;;;17.7;45.4
65606;BME280;52276;48.906;2.384;2023-03-23T16:16:44;88103.997802734;;;17.6;45.3
65606;BME280;52276;48.906;2.384;2023-03-23T16:17:43;88103.997802734;;;17.6;45.5
65606;BME280;52276;48.906;2.384;2023-03-23T16:18:41;88103.997802734;;;17.6;45.5
65606;BME280;52276;48.906;2.384;2023-03-23T16:19:42;88103.997802734;;;17.6;45.5
65606;BME280;52276;48.906;2.384;2023-03-23T16:20:58;88103.997802734;;;17.6;45.5
65606;BME280;52276;48.906;2.384;2023-03-23T16:21:46;88103.997802734;;;17.6;45.7
65606;BME280;52276;48.906;2.384;2023-03-23T16:22:41;88103.997802734;;;17.5;45.7
65606;BME280;52276;48.906;2.384;2023-03-23T16:23:41;88103.997802734;;;17.6;45.8
65606;BME280;52276;48.906;2.384;2023-03-23T16:24:41;88103.997802734;;;17.6;45.8
65606;BME280;52276;48.906;2.384;2023-03-23T16:25:42;88103.997802734;;;17.5;45.8
65606;BME280;52276;48.906;2.384;2023-03-23T16:26:42;88103.997802734;;;17.5;45.9
65606;BME280;52276;48.906;2.384;2023-03-23T16:27:47;88103.997802734;;;17.5;46
65606;BME280;52276;48.906;2.384;2023-03-23T16:28:42;88103.997802734;;;17.5;46
65606;BME280;52276;48.906;2.384;2023-03-23T16:29:41;88103.997802734;;;17.5;46.1
65606;BME280;52276;48.906;2.384;2023-03-23T16:30:43;88103.997802734;;;17.5;46.1
65606;BME280;52276;48.906;2.384;2023-03-23T16:31:42;88103.997802734;;;17.5;46
65606;BME280;52276;48.906;2.384;2023-03-23T16:32:43;88103.997802734;;;17.5;46.1
65606;BME280;52276;48.906;2.384;2023-03-23T16:33:41;88103.997802734;;;17.5;46.1
65606;BME280;52276;48.906;2.384;2023-03-23T16:34:41;88103.997802734;;;17.5;46.1
65606;BME280;52276;48.906;2.384;2023-03-23T16:35:42;88103.997802734;;;17.5;46.1
65606;BME280;52276;48.906;2.384;2023-03-23T16:36:41;88103.997802734;;;17.5;46
65606;BME280;52276;48.906;2.384;2023-03-23T16:37:43;88103.997802734;;;17.5;46.1
65606;BME280;52276;48.906;2.384;2023-03-23T16:38:42;88103.997802734;;;17.5;45.9
65606;BME280;52276;48.906;2.384;2023-03-23T16:39:42;88103.997802734;;;17.5;45.9
65606;BME280;52276;48.906;2.384;2023-03-23T16:40:42;88103.997802734;;;17.5;46.1
65606;BME280;52276;48.906;2.384;2023-03-23T16:41:42;88103.997802734;;;17.5;46.1
65606;BME280;52276;48.906;2.384;2023-03-23T16:42:41;88103.997802734;;;17.5;46
65606;BME280;52276;48.906;2.384;2023-03-23T16:43:41;88103.997802734;;;17.5;46
65606;BME280;52276;48.906;2.384;2023-03-23T16:44:42;88103.997802734;;;17.5;46.1
65606;BME280;52276;48.906;2.384;2023-03-23T16:45:43;88103.997802734;;;17.5;46.1
65606;BME280;52276;48.906;2.384;2023-03-23T16:46:41;88103.997802734;;;17.5;45.8
65606;BME280;52276;48.906;2.384;2023-03-23T16:47:42;88103.997802734;;;17.5;45.1
65606;BME280;52276;48.906;2.384;2023-03-23T16:48:42;88103.997802734;;;17.5;45.7
65606;BME280;52276;48.906;2.384;2023-03-23T16:49:43;88103.997802734;;;17.5;45.1
65606;BME280;52276;48.906;2.384;2023-03-23T16:50:43;88103.997802734;;;17.4;45.2
65606;BME280;52276;48.906;2.384;2023-03-23T16:51:41;88103.997802734;;;17.5;45.6
65606;BME280;52276;48.906;2.384;2023-03-23T16:52:42;88103.997802734;;;17.5;45.8
65606;BME280;52276;48.906;2.384;2023-03-23T16:53:42;88103.997802734;;;17.5;45.8
65606;BME280;52276;48.906;2.384;2023-03-23T16:54:41;88103.997802734;;;17.4;45.6
65606;BME280;52276;48.906;2.384;2023-03-23T16:55:41;88103.997802734;;;17.4;45.7
65606;BME280;52276;48.906;2.384;2023-03-23T16:56:49;88103.997802734;;;17.4;45.8
65606;BME280;52276;48.906;2.384;2023-03-23T16:57:41;88103.997802734;;;17.4;45.7
65606;BME280;52276;48.906;2.384;2023-03-23T16:58:49;88103.997802734;;;17.4;45.8
65606;BME280;52276;48.906;2.384;2023-03-23T16:59:42;88103.997802734;;;17.4;45.7
65606;BME280;52276;48.906;2.384;2023-03-23T17:00:43;88103.997802734;;;17.4;45.7
65606;BME280;52276;48.906;2.384;2023-03-23T17:01:41;88103.997802734;;;17.4;45.7
65606;BME280;52276;48.906;2.384;2023-03-23T17:02:42;88103.997802734;;;17.4;45.3
65606;BME280;52276;48.906;2.384;2023-03-23T17:03:41;88103.997802734;;;17.4;45.6
65606;BME280;52276;48.906;2.384;2023-03-23T17:04:43;88103.997802734;;;17.4;45.6
65606;BME280;52276;48.906;2.384;2023-03-23T17:05:46;88103.997802734;;;17.3;45.4
65606;BME280;52276;48.906;2.384;2023-03-23T17:06:41;88103.997802734;;;17.4;45.9
65606;BME280;52276;48.906;2.384;2023-03-23T17:07:41;88103.997802734;;;17.4;45.8
65606;BME280;52276;48.906;2.384;2023-03-23T17:08:41;88103.997802734;;;17.4;46
65606;BME280;52276;48.906;2.384;2023-03-23T17:09:43;88103.997802734;;;17.4;45.9
65606;BME280;52276;48.906;2.384;2023-03-23T17:10:43;88103.997802734;;;17.4;45.9
65606;BME280;52276;48.906;2.384;2023-03-23T17:11:41;88103.997802734;;;17.4;45.9
65606;BME280;52276;48.906;2.384;2023-03-23T17:13:01;88103.997802734;;;17.4;45.9
65606;BME280;52276;48.906;2.384;2023-03-23T17:13:42;88103.997802734;;;17.4;46
65606;BME280;52276;48.906;2.384;2023-03-23T17:14:41;88103.997802734;;;17.4;46
65606;BME280;52276;48.906;2.384;2023-03-23T17:24:56;88103.997802734;;;17.3;46.2
65606;BME280;52276;48.906;2.384;2023-03-23T17:26:32;88103.997802734;;;17.3;46.3